BAW252 MBPV-MYNN
Flight info
| Callsign | BAW252 |
|---|---|
| Flight time | 0h 58m |
| Altitude | 36000 |
| Route | MICAS4 MICAS A555 INDEE DCT ZQA |
| Aircraft | B772/H-SDE1E3FGHIJ3J5J6M1M2P2RWXYZ/LB1D1 |
Departure
| Time | 2026-05-06 12:38 |
|---|---|
| Airport | Providenciales International Airport (MBPV) |
Arrival
| Time | 2026-05-06 13:37 |
|---|---|
| Airport | Lynden Pindling International Airport (MYNN) |
| Time | Latitude | Longitude | Altitude | Speed | Heading |
|---|---|---|---|---|---|
| 2026-05-06 12:14 | 21.77600 | -72.27361 | 47 ft | 0 kts | 33° |
| 2026-05-06 12:29 | 21.77597 | -72.27364 | 46 ft | 3 kts | 33° |
| 2026-05-06 12:29 | 21.77575 | -72.27379 | 43 ft | 4 kts | 24° |
| 2026-05-06 12:29 | 21.77557 | -72.27383 | 44 ft | 4 kts | 348° |
| 2026-05-06 12:29 | 21.77536 | -72.27375 | 43 ft | 4 kts | 315° |
| 2026-05-06 12:30 | 21.77523 | -72.27354 | 41 ft | 4 kts | 282° |
| 2026-05-06 12:30 | 21.77521 | -72.27336 | 42 ft | 0 kts | 273° |
| 2026-05-06 12:33 | 21.77521 | -72.27337 | 42 ft | 1 kts | 273° |
| 2026-05-06 12:33 | 21.77523 | -72.27376 | 43 ft | 8 kts | 273° |
| 2026-05-06 12:33 | 21.77526 | -72.27432 | 46 ft | 7 kts | 273° |
| 2026-05-06 12:33 | 21.77506 | -72.27458 | 45 ft | 4 kts | 193° |
| 2026-05-06 12:34 | 21.77470 | -72.27461 | 44 ft | 7 kts | 184° |
| 2026-05-06 12:34 | 21.77416 | -72.27472 | 42 ft | 9 kts | 214° |
| 2026-05-06 12:34 | 21.77404 | -72.27535 | 42 ft | 9 kts | 272° |
| 2026-05-06 12:34 | 21.77408 | -72.27602 | 42 ft | 9 kts | 273° |
| 2026-05-06 12:35 | 21.77412 | -72.27676 | 42 ft | 12 kts | 273° |
| 2026-05-06 12:35 | 21.77415 | -72.27745 | 42 ft | 14 kts | 273° |
| 2026-05-06 12:35 | 21.77422 | -72.27886 | 42 ft | 14 kts | 273° |
| 2026-05-06 12:35 | 21.77427 | -72.27992 | 42 ft | 14 kts | 273° |
| 2026-05-06 12:36 | 21.77432 | -72.28098 | 41 ft | 14 kts | 273° |
| 2026-05-06 12:36 | 21.77447 | -72.28146 | 40 ft | 9 kts | 307° |
| 2026-05-06 12:36 | 21.77465 | -72.28199 | 41 ft | 5 kts | 239° |
| 2026-05-06 12:36 | 21.77442 | -72.28201 | 41 ft | 2 kts | 146° |
| 2026-05-06 12:37 | 21.77438 | -72.28187 | 41 ft | 2 kts | 104° |
| 2026-05-06 12:37 | 21.77436 | -72.28172 | 41 ft | 2 kts | 95° |
| 2026-05-06 12:37 | 21.77436 | -72.28164 | 41 ft | 0 kts | 93° |
| 2026-05-06 12:38 | 21.77435 | -72.28137 | 41 ft | 17 kts | 93° |
| 2026-05-06 12:38 | 21.77414 | -72.27693 | 42 ft | 105 kts | 93° |
| 2026-05-06 12:38 | 21.77362 | -72.26615 | 172 ft | 171 kts | 94° |
| 2026-05-06 12:38 | 21.77304 | -72.25277 | 1016 ft | 185 kts | 95° |
| 2026-05-06 12:39 | 21.77210 | -72.23881 | 2009 ft | 192 kts | 97° |
| 2026-05-06 12:39 | 21.77108 | -72.22371 | 2594 ft | 214 kts | 95° |
| 2026-05-06 12:39 | 21.77023 | -72.20679 | 3098 ft | 238 kts | 95° |
| 2026-05-06 12:39 | 21.77043 | -72.18867 | 3814 ft | 248 kts | 81° |
| 2026-05-06 12:40 | 21.77839 | -72.17196 | 4647 ft | 260 kts | 46° |
| 2026-05-06 12:40 | 21.79395 | -72.16247 | 5561 ft | 267 kts | 17° |
| 2026-05-06 12:40 | 21.81266 | -72.16024 | 6408 ft | 276 kts | 359° |
| 2026-05-06 12:40 | 21.83186 | -72.16288 | 7171 ft | 282 kts | 351° |
| 2026-05-06 12:41 | 21.85145 | -72.16636 | 7885 ft | 287 kts | 351° |
| 2026-05-06 12:41 | 21.87136 | -72.16944 | 8727 ft | 290 kts | 351° |
| 2026-05-06 12:41 | 21.89143 | -72.17245 | 9535 ft | 292 kts | 350° |
| 2026-05-06 12:41 | 21.91144 | -72.17544 | 10288 ft | 295 kts | 350° |
| 2026-05-06 12:42 | 21.93240 | -72.17863 | 10604 ft | 316 kts | 350° |
| 2026-05-06 12:42 | 21.95510 | -72.18209 | 10787 ft | 342 kts | 350° |
| 2026-05-06 12:42 | 21.97909 | -72.18699 | 10929 ft | 359 kts | 339° |
| 2026-05-06 12:42 | 22.00062 | -72.20104 | 11558 ft | 367 kts | 316° |
| 2026-05-06 12:43 | 22.01609 | -72.22261 | 12578 ft | 362 kts | 299° |
| 2026-05-06 12:43 | 22.02862 | -72.24639 | 13567 ft | 367 kts | 297° |
| 2026-05-06 12:43 | 22.04108 | -72.27077 | 14440 ft | 374 kts | 297° |
| 2026-05-06 12:43 | 22.05371 | -72.29546 | 15332 ft | 378 kts | 297° |
| 2026-05-06 12:44 | 22.06652 | -72.32026 | 16275 ft | 380 kts | 297° |
| 2026-05-06 12:44 | 22.07954 | -72.34523 | 17203 ft | 382 kts | 298° |
| 2026-05-06 12:44 | 22.09269 | -72.37030 | 18052 ft | 386 kts | 297° |
| 2026-05-06 12:44 | 22.10600 | -72.39560 | 18798 ft | 390 kts | 298° |
| 2026-05-06 12:45 | 22.11930 | -72.42086 | 19463 ft | 394 kts | 298° |
| 2026-05-06 12:45 | 22.13293 | -72.44675 | 20130 ft | 398 kts | 298° |
| 2026-05-06 12:45 | 22.15897 | -72.50018 | 21402 ft | 406 kts | 296° |
| 2026-05-06 12:46 | 22.17179 | -72.52751 | 22049 ft | 409 kts | 296° |
| 2026-05-06 12:46 | 22.18474 | -72.55501 | 22665 ft | 413 kts | 296° |
| 2026-05-06 12:46 | 22.19790 | -72.58279 | 23264 ft | 417 kts | 297° |
| 2026-05-06 12:46 | 22.21122 | -72.61075 | 23821 ft | 421 kts | 297° |
| 2026-05-06 12:47 | 22.22452 | -72.63862 | 24337 ft | 423 kts | 297° |
| 2026-05-06 12:47 | 22.23802 | -72.66690 | 24906 ft | 425 kts | 297° |
| 2026-05-06 12:47 | 22.25200 | -72.69503 | 25433 ft | 426 kts | 300° |
| 2026-05-06 12:47 | 22.26681 | -72.72285 | 25977 ft | 428 kts | 301° |
| 2026-05-06 12:48 | 22.28194 | -72.75066 | 26511 ft | 430 kts | 301° |
| 2026-05-06 12:48 | 22.29712 | -72.77858 | 27028 ft | 433 kts | 301° |
| 2026-05-06 12:48 | 22.31236 | -72.80684 | 27540 ft | 436 kts | 301° |
| 2026-05-06 12:48 | 22.32757 | -72.83529 | 28049 ft | 438 kts | 301° |
| 2026-05-06 12:49 | 22.34279 | -72.86387 | 28541 ft | 441 kts | 301° |
| 2026-05-06 12:49 | 22.35808 | -72.89269 | 29029 ft | 443 kts | 301° |
| 2026-05-06 12:49 | 22.37326 | -72.92132 | 29499 ft | 446 kts | 301° |
| 2026-05-06 12:49 | 22.38871 | -72.95046 | 29960 ft | 448 kts | 301° |
| 2026-05-06 12:50 | 22.40430 | -72.97985 | 30354 ft | 450 kts | 302° |
| 2026-05-06 12:50 | 22.41992 | -73.00933 | 30694 ft | 453 kts | 302° |
| 2026-05-06 12:50 | 22.43560 | -73.03897 | 31021 ft | 455 kts | 302° |
| 2026-05-06 12:50 | 22.45132 | -73.06872 | 31413 ft | 456 kts | 302° |
| 2026-05-06 12:51 | 22.46699 | -73.09841 | 31868 ft | 454 kts | 302° |
| 2026-05-06 12:51 | 22.48259 | -73.12803 | 32394 ft | 452 kts | 303° |
| 2026-05-06 12:51 | 22.49812 | -73.15750 | 32902 ft | 450 kts | 303° |
| 2026-05-06 12:51 | 22.51357 | -73.18683 | 33423 ft | 448 kts | 303° |
| 2026-05-06 12:52 | 22.52897 | -73.21608 | 33943 ft | 447 kts | 304° |
| 2026-05-06 12:52 | 22.54433 | -73.24526 | 34410 ft | 445 kts | 304° |
| 2026-05-06 12:52 | 22.55957 | -73.27424 | 34922 ft | 442 kts | 304° |
| 2026-05-06 12:52 | 22.57450 | -73.30265 | 35456 ft | 438 kts | 304° |
| 2026-05-06 12:53 | 22.58947 | -73.33116 | 35963 ft | 435 kts | 305° |
| 2026-05-06 12:53 | 22.60448 | -73.35973 | 36095 ft | 438 kts | 305° |
| 2026-05-06 12:53 | 22.61954 | -73.38838 | 36097 ft | 436 kts | 305° |
| 2026-05-06 12:54 | 22.64938 | -73.44526 | 36096 ft | 434 kts | 305° |
| 2026-05-06 12:54 | 22.67923 | -73.50223 | 36097 ft | 434 kts | 305° |
| 2026-05-06 12:55 | 22.70904 | -73.55919 | 36097 ft | 435 kts | 305° |
| 2026-05-06 12:55 | 22.73866 | -73.61584 | 36098 ft | 435 kts | 305° |
| 2026-05-06 12:56 | 22.76851 | -73.67302 | 36094 ft | 434 kts | 305° |
| 2026-05-06 12:56 | 22.79823 | -73.73001 | 36096 ft | 434 kts | 305° |
| 2026-05-06 12:57 | 22.82795 | -73.78705 | 36096 ft | 434 kts | 305° |
| 2026-05-06 12:57 | 22.85742 | -73.84369 | 36098 ft | 434 kts | 305° |
| 2026-05-06 12:58 | 22.88704 | -73.90066 | 36097 ft | 434 kts | 305° |
| 2026-05-06 12:58 | 22.91668 | -73.95775 | 36097 ft | 434 kts | 305° |
| 2026-05-06 12:59 | 22.94627 | -74.01480 | 36096 ft | 434 kts | 305° |
| 2026-05-06 12:59 | 22.97585 | -74.07190 | 36098 ft | 433 kts | 305° |
| 2026-05-06 13:00 | 23.00538 | -74.12898 | 36101 ft | 433 kts | 305° |
| 2026-05-06 13:00 | 23.03488 | -74.18605 | 36101 ft | 433 kts | 305° |
| 2026-05-06 13:01 | 23.06434 | -74.24312 | 36099 ft | 433 kts | 305° |
| 2026-05-06 13:01 | 23.09359 | -74.29984 | 36101 ft | 433 kts | 304° |
| 2026-05-06 13:02 | 23.12304 | -74.35701 | 36101 ft | 433 kts | 304° |
| 2026-05-06 13:02 | 23.15377 | -74.41300 | 36100 ft | 429 kts | 309° |
| 2026-05-06 13:03 | 23.18720 | -74.46674 | 36097 ft | 429 kts | 309° |
| 2026-05-06 13:03 | 23.22079 | -74.52036 | 36105 ft | 429 kts | 309° |
| 2026-05-06 13:04 | 23.25406 | -74.57380 | 36118 ft | 430 kts | 309° |
| 2026-05-06 13:04 | 23.28757 | -74.62788 | 36112 ft | 431 kts | 309° |
| 2026-05-06 13:05 | 23.32109 | -74.68210 | 36100 ft | 431 kts | 309° |
| 2026-05-06 13:05 | 23.35451 | -74.73624 | 36098 ft | 431 kts | 308° |
| 2026-05-06 13:06 | 23.38791 | -74.79038 | 36101 ft | 430 kts | 308° |
| 2026-05-06 13:06 | 23.42125 | -74.84447 | 36099 ft | 430 kts | 308° |
| 2026-05-06 13:07 | 23.45440 | -74.89832 | 36103 ft | 430 kts | 308° |
| 2026-05-06 13:07 | 23.48787 | -74.95274 | 36104 ft | 431 kts | 308° |
| 2026-05-06 13:08 | 23.52106 | -75.00676 | 36100 ft | 431 kts | 308° |
| 2026-05-06 13:08 | 23.55444 | -75.06115 | 36099 ft | 432 kts | 308° |
| 2026-05-06 13:09 | 23.58780 | -75.11557 | 36101 ft | 432 kts | 308° |
| 2026-05-06 13:09 | 23.62121 | -75.17014 | 36102 ft | 432 kts | 308° |
| 2026-05-06 13:10 | 23.65437 | -75.22434 | 36104 ft | 432 kts | 308° |
| 2026-05-06 13:10 | 23.68774 | -75.27896 | 36102 ft | 432 kts | 308° |
| 2026-05-06 13:11 | 23.72111 | -75.33362 | 36098 ft | 433 kts | 308° |
| 2026-05-06 13:11 | 23.75448 | -75.38836 | 36099 ft | 433 kts | 308° |
| 2026-05-06 13:12 | 23.78776 | -75.44300 | 36098 ft | 433 kts | 308° |
| 2026-05-06 13:12 | 23.82111 | -75.49783 | 36099 ft | 433 kts | 308° |
| 2026-05-06 13:13 | 23.85446 | -75.55269 | 36094 ft | 433 kts | 307° |
| 2026-05-06 13:13 | 23.88780 | -75.60762 | 36093 ft | 434 kts | 307° |
| 2026-05-06 13:14 | 23.92111 | -75.66256 | 36092 ft | 434 kts | 307° |
| 2026-05-06 13:14 | 23.95440 | -75.71753 | 36077 ft | 431 kts | 307° |
| 2026-05-06 13:14 | 23.97087 | -75.74476 | 35898 ft | 428 kts | 307° |
| 2026-05-06 13:15 | 23.98731 | -75.77194 | 35518 ft | 430 kts | 307° |
| 2026-05-06 13:15 | 24.00386 | -75.79929 | 35034 ft | 433 kts | 307° |
| 2026-05-06 13:15 | 24.02055 | -75.82688 | 34511 ft | 437 kts | 307° |
| 2026-05-06 13:15 | 24.03718 | -75.85439 | 33586 ft | 439 kts | 307° |
| 2026-05-06 13:16 | 24.05405 | -75.88235 | 32571 ft | 441 kts | 306° |
| 2026-05-06 13:16 | 24.07096 | -75.91039 | 31714 ft | 439 kts | 306° |
| 2026-05-06 13:16 | 24.08774 | -75.93826 | 30969 ft | 436 kts | 306° |
| 2026-05-06 13:16 | 24.10439 | -75.96592 | 30233 ft | 433 kts | 306° |
| 2026-05-06 13:17 | 24.12090 | -75.99335 | 29399 ft | 430 kts | 306° |
| 2026-05-06 13:17 | 24.13706 | -76.02021 | 28606 ft | 426 kts | 306° |
| 2026-05-06 13:17 | 24.15331 | -76.04724 | 27855 ft | 422 kts | 306° |
| 2026-05-06 13:17 | 24.16937 | -76.07394 | 27111 ft | 418 kts | 305° |
| 2026-05-06 13:18 | 24.18531 | -76.10048 | 26365 ft | 415 kts | 305° |
| 2026-05-06 13:18 | 24.20115 | -76.12684 | 25662 ft | 412 kts | 305° |
| 2026-05-06 13:18 | 24.21685 | -76.15299 | 24947 ft | 410 kts | 305° |
| 2026-05-06 13:18 | 24.23249 | -76.17906 | 24246 ft | 408 kts | 305° |
| 2026-05-06 13:19 | 24.24804 | -76.20499 | 23496 ft | 406 kts | 305° |
| 2026-05-06 13:19 | 24.26354 | -76.23083 | 22734 ft | 405 kts | 304° |
| 2026-05-06 13:19 | 24.27892 | -76.25652 | 22042 ft | 402 kts | 304° |
| 2026-05-06 13:19 | 24.29418 | -76.28201 | 21371 ft | 399 kts | 304° |
| 2026-05-06 13:20 | 24.30938 | -76.30741 | 20746 ft | 397 kts | 304° |
| 2026-05-06 13:20 | 24.32452 | -76.33273 | 20121 ft | 396 kts | 304° |
| 2026-05-06 13:20 | 24.33963 | -76.35800 | 19492 ft | 396 kts | 304° |
| 2026-05-06 13:20 | 24.35451 | -76.38290 | 18873 ft | 396 kts | 304° |
| 2026-05-06 13:21 | 24.36965 | -76.40825 | 18231 ft | 396 kts | 303° |
| 2026-05-06 13:21 | 24.38481 | -76.43365 | 17540 ft | 396 kts | 303° |
| 2026-05-06 13:21 | 24.39990 | -76.45895 | 16857 ft | 396 kts | 303° |
| 2026-05-06 13:21 | 24.41497 | -76.48422 | 16209 ft | 394 kts | 303° |
| 2026-05-06 13:22 | 24.42974 | -76.50902 | 15614 ft | 392 kts | 303° |
| 2026-05-06 13:22 | 24.44462 | -76.53400 | 15015 ft | 390 kts | 303° |
| 2026-05-06 13:22 | 24.45943 | -76.55888 | 14401 ft | 388 kts | 303° |
| 2026-05-06 13:22 | 24.47419 | -76.58369 | 13787 ft | 387 kts | 303° |
| 2026-05-06 13:23 | 24.48891 | -76.60843 | 13133 ft | 385 kts | 303° |
| 2026-05-06 13:23 | 24.50333 | -76.63270 | 12519 ft | 383 kts | 302° |
| 2026-05-06 13:23 | 24.51799 | -76.65739 | 11912 ft | 380 kts | 302° |
| 2026-05-06 13:23 | 24.53241 | -76.68166 | 11317 ft | 378 kts | 302° |
| 2026-05-06 13:24 | 24.54644 | -76.70530 | 10894 ft | 370 kts | 302° |
| 2026-05-06 13:24 | 24.56025 | -76.72857 | 10617 ft | 357 kts | 302° |
| 2026-05-06 13:24 | 24.57355 | -76.75099 | 10404 ft | 344 kts | 302° |
| 2026-05-06 13:24 | 24.58642 | -76.77270 | 10189 ft | 333 kts | 302° |
| 2026-05-06 13:25 | 24.59878 | -76.79357 | 10075 ft | 318 kts | 302° |
| 2026-05-06 13:25 | 24.61060 | -76.81351 | 10007 ft | 304 kts | 302° |
| 2026-05-06 13:25 | 24.62192 | -76.83264 | 9863 ft | 294 kts | 302° |
| 2026-05-06 13:25 | 24.62923 | -76.84499 | 9726 ft | 289 kts | 302° |
| 2026-05-06 13:26 | 24.64009 | -76.86336 | 9438 ft | 285 kts | 302° |
| 2026-05-06 13:26 | 24.65085 | -76.88158 | 9082 ft | 283 kts | 302° |
| 2026-05-06 13:26 | 24.66159 | -76.89976 | 8724 ft | 283 kts | 302° |
| 2026-05-06 13:26 | 24.67228 | -76.91786 | 8380 ft | 282 kts | 302° |
| 2026-05-06 13:27 | 24.68294 | -76.93590 | 8049 ft | 280 kts | 301° |
| 2026-05-06 13:27 | 24.69352 | -76.95384 | 7718 ft | 279 kts | 301° |
| 2026-05-06 13:27 | 24.70408 | -76.97174 | 7399 ft | 278 kts | 301° |
| 2026-05-06 13:27 | 24.71458 | -76.98953 | 7096 ft | 277 kts | 301° |
| 2026-05-06 13:28 | 24.72503 | -77.00725 | 6773 ft | 276 kts | 301° |
| 2026-05-06 13:28 | 24.73546 | -77.02493 | 6461 ft | 275 kts | 301° |
| 2026-05-06 13:28 | 24.74573 | -77.04237 | 6146 ft | 274 kts | 301° |
| 2026-05-06 13:28 | 24.75604 | -77.05988 | 5836 ft | 272 kts | 301° |
| 2026-05-06 13:29 | 24.76631 | -77.07731 | 5522 ft | 271 kts | 301° |
| 2026-05-06 13:29 | 24.77651 | -77.09465 | 5223 ft | 269 kts | 301° |
| 2026-05-06 13:29 | 24.78669 | -77.11195 | 4912 ft | 268 kts | 302° |
| 2026-05-06 13:29 | 24.79681 | -77.12917 | 4606 ft | 267 kts | 302° |
| 2026-05-06 13:30 | 24.80687 | -77.14627 | 4308 ft | 265 kts | 302° |
| 2026-05-06 13:30 | 24.81688 | -77.16330 | 4010 ft | 264 kts | 302° |
| 2026-05-06 13:30 | 24.82685 | -77.18027 | 3721 ft | 263 kts | 302° |
| 2026-05-06 13:30 | 24.83665 | -77.19696 | 3438 ft | 262 kts | 302° |
| 2026-05-06 13:31 | 24.84656 | -77.21381 | 3141 ft | 261 kts | 302° |
| 2026-05-06 13:31 | 24.85639 | -77.23058 | 2846 ft | 260 kts | 302° |
| 2026-05-06 13:31 | 24.86617 | -77.24726 | 2607 ft | 258 kts | 302° |
| 2026-05-06 13:31 | 24.87582 | -77.26371 | 2375 ft | 254 kts | 302° |
| 2026-05-06 13:32 | 24.88535 | -77.27995 | 2157 ft | 250 kts | 302° |
| 2026-05-06 13:32 | 24.89463 | -77.29578 | 2071 ft | 241 kts | 302° |
| 2026-05-06 13:32 | 24.90354 | -77.31091 | 2007 ft | 229 kts | 304° |
| 2026-05-06 13:32 | 24.91378 | -77.32386 | 1851 ft | 221 kts | 315° |
| 2026-05-06 13:33 | 24.92468 | -77.33544 | 1750 ft | 213 kts | 316° |
| 2026-05-06 13:33 | 24.93500 | -77.34644 | 1698 ft | 200 kts | 315° |
| 2026-05-06 13:33 | 24.94457 | -77.35680 | 1662 ft | 184 kts | 315° |
| 2026-05-06 13:33 | 24.95322 | -77.36626 | 1604 ft | 167 kts | 315° |
| 2026-05-06 13:34 | 24.96120 | -77.37501 | 1596 ft | 159 kts | 315° |
| 2026-05-06 13:34 | 24.96895 | -77.38353 | 1584 ft | 159 kts | 314° |
| 2026-05-06 13:34 | 24.97678 | -77.39217 | 1447 ft | 156 kts | 314° |
| 2026-05-06 13:34 | 24.98411 | -77.40030 | 1260 ft | 143 kts | 314° |
| 2026-05-06 13:35 | 24.99090 | -77.40784 | 1082 ft | 138 kts | 315° |
| 2026-05-06 13:35 | 24.99775 | -77.41546 | 924 ft | 142 kts | 315° |
| 2026-05-06 13:35 | 25.00459 | -77.42325 | 746 ft | 140 kts | 314° |
| 2026-05-06 13:35 | 25.01137 | -77.43100 | 576 ft | 140 kts | 316° |
| 2026-05-06 13:36 | 25.01836 | -77.43848 | 390 ft | 139 kts | 316° |
| 2026-05-06 13:36 | 25.02512 | -77.44614 | 219 ft | 141 kts | 316° |
| 2026-05-06 13:36 | 25.03207 | -77.45379 | 46 ft | 142 kts | 316° |
| 2026-05-06 13:36 | 25.03855 | -77.46092 | 27 ft | 113 kts | 314° |
| 2026-05-06 13:37 | 25.04301 | -77.46590 | 26 ft | 69 kts | 315° |
| 2026-05-06 13:37 | 25.04563 | -77.46882 | 29 ft | 47 kts | 314° |
| 2026-05-06 13:37 | 25.04713 | -77.47048 | 29 ft | 18 kts | 315° |
| 2026-05-06 13:37 | 25.04760 | -77.47078 | 29 ft | 5 kts | 20° |
| 2026-05-06 13:38 | 25.04777 | -77.47044 | 29 ft | 5 kts | 69° |
| 2026-05-06 13:38 | 25.04789 | -77.46998 | 27 ft | 7 kts | 75° |
| 2026-05-06 13:38 | 25.04807 | -77.46939 | 25 ft | 8 kts | 54° |
| 2026-05-06 13:38 | 25.04845 | -77.46941 | 28 ft | 6 kts | 323° |
| 2026-05-06 13:39 | 25.04885 | -77.46960 | 25 ft | 7 kts | 6° |
| 2026-05-06 13:39 | 25.04916 | -77.46924 | 25 ft | 4 kts | 60° |
| 2026-05-06 13:39 | 25.04929 | -77.46899 | 23 ft | 3 kts | 60° |
| 2026-05-06 13:39 | 25.04923 | -77.46872 | 25 ft | 4 kts | 123° |
| 2026-05-06 13:40 | 25.04898 | -77.46851 | 23 ft | 5 kts | 144° |
| 2026-05-06 13:40 | 25.04870 | -77.46829 | 24 ft | 5 kts | 146° |
| 2026-05-06 13:40 | 25.04866 | -77.46826 | 25 ft | 0 kts | 146° |